createdAt,value
2017-10-23T00:02:10.709Z,100768.23
2017-10-23T00:04:38.373Z,100770.06
2017-10-23T00:07:05.391Z,100775.45
2017-10-23T00:09:32.217Z,100776.93
2017-10-23T00:12:04.923Z,100773.12
2017-10-23T00:14:36.991Z,100779.27
2017-10-23T00:17:04.712Z,100770.70
2017-10-23T00:19:34.647Z,100777.30
2017-10-23T00:22:01.556Z,100771.20
2017-10-23T00:24:35.013Z,100772.37
2017-10-23T00:27:07.492Z,100770.84
2017-10-23T00:29:34.828Z,100780.94
2017-10-23T00:32:08.797Z,100782.43
2017-10-23T00:34:36.127Z,100785.09
2017-10-23T00:37:03.356Z,100779.11
2017-10-23T00:39:36.528Z,100787.17
2017-10-23T00:42:05.972Z,100780.78
2017-10-23T00:44:42.422Z,100790.31
2017-10-23T00:47:09.994Z,100789.31
2017-10-23T00:49:44.340Z,100787.88
2017-10-23T00:52:14.345Z,100789.31
2017-10-23T00:54:43.122Z,100793.34
2017-10-23T00:57:10.047Z,100797.35
2017-10-23T00:59:37.193Z,100789.97
2017-10-23T01:02:09.314Z,100788.76
2017-10-23T01:04:38.201Z,100795.62
2017-10-23T01:07:10.185Z,100798.52
2017-10-23T01:09:37.401Z,100797.67
2017-10-23T01:12:04.481Z,100795.83
2017-10-23T01:14:34.284Z,100788.97
2017-10-23T01:17:04.273Z,100790.16
2017-10-23T01:19:31.299Z,100789.70
2017-10-23T01:22:03.563Z,100794.20
2017-10-23T01:24:32.189Z,100797.89
2017-10-23T01:26:59.092Z,100791.02
2017-10-23T01:29:27.445Z,100798.41
2017-10-23T01:31:55.511Z,100794.04
2017-10-23T01:34:23.325Z,100794.20
2017-10-23T01:37:03.388Z,100786.70
2017-10-23T01:39:30.762Z,100783.53
2017-10-23T01:42:04.521Z,100779.42
2017-10-23T01:44:33.245Z,100784.34
2017-10-23T01:47:07.612Z,100779.78
2017-10-23T01:49:35.336Z,100795.08
2017-10-23T01:52:02.159Z,100787.05
2017-10-23T01:54:29.019Z,100785.09
2017-10-23T01:57:01.981Z,100782.95
2017-10-23T01:59:28.910Z,100771.39
2017-10-23T02:01:56.624Z,100763.91
2017-10-23T02:04:23.771Z,100773.09
2017-10-23T02:06:54.083Z,100780.69
2017-10-23T02:09:21.022Z,100776.17
2017-10-23T02:11:47.860Z,100787.06
2017-10-23T02:14:14.809Z,100795.12
2017-10-23T02:16:41.783Z,100797.80
2017-10-23T02:19:14.179Z,100804.59
2017-10-23T02:21:42.384Z,100794.86
2017-10-23T02:24:09.236Z,100801.31
2017-10-23T02:26:36.024Z,100802.18
2017-10-23T02:29:02.898Z,100806.91
2017-10-23T02:31:29.729Z,100808.70
2017-10-23T02:33:56.532Z,100811.95
2017-10-23T02:36:24.075Z,100824.23
2017-10-23T02:38:50.906Z,100818.65
2017-10-23T02:41:17.735Z,100814.72
2017-10-23T02:43:45.317Z,100815.81
2017-10-23T02:46:12.153Z,100812.90
2017-10-23T02:48:38.975Z,100820.52
2017-10-23T02:51:05.821Z,100819.16
2017-10-23T02:53:32.628Z,100817.73
2017-10-23T02:55:59.449Z,100816.16
2017-10-23T02:58:26.284Z,100825.16
2017-10-23T03:00:53.124Z,100831.40
2017-10-23T03:03:20.701Z,100829.20
2017-10-23T03:05:48.250Z,100832.47
2017-10-23T03:08:15.084Z,100830.58
2017-10-23T03:10:41.972Z,100836.75
2017-10-23T03:13:08.942Z,100835.47
2017-10-23T03:15:35.859Z,100832.27
2017-10-23T03:18:02.747Z,100837.27
2017-10-23T03:20:29.680Z,100833.04
2017-10-23T03:22:56.545Z,100832.20
2017-10-23T03:25:23.424Z,100832.28
2017-10-23T03:27:50.324Z,100833.87
2017-10-23T03:30:17.186Z,100834.84
2017-10-23T03:32:44.117Z,100838.66
2017-10-23T03:35:11.005Z,100847.03
2017-10-23T03:37:37.965Z,100837.86
2017-10-23T03:40:05.040Z,100840.83
2017-10-23T03:42:31.933Z,100853.07
2017-10-23T03:44:58.887Z,100847.88
2017-10-23T03:47:26.523Z,100852.50
2017-10-23T03:49:53.433Z,100853.73
2017-10-23T03:52:20.332Z,100861.53
2017-10-23T03:54:47.205Z,100862.83
2017-10-23T03:57:14.128Z,100863.77
2017-10-23T03:59:41.773Z,100866.44
2017-10-23T04:02:08.680Z,100868.44
2017-10-23T04:04:35.644Z,100864.14
2017-10-23T04:07:02.566Z,100863.59
2017-10-23T04:09:29.508Z,100865.20
2017-10-23T04:11:56.515Z,100867.77
2017-10-23T04:14:24.207Z,100861.04
2017-10-23T04:16:51.155Z,100863.55
2017-10-23T04:19:18.774Z,100864.98
2017-10-23T04:21:45.653Z,100863.84
2017-10-23T04:24:12.599Z,100867.86
2017-10-23T04:26:39.496Z,100865.09
2017-10-23T04:29:06.401Z,100869.98
2017-10-23T04:31:33.332Z,100869.41
2017-10-23T04:34:00.220Z,100872.88
2017-10-23T04:36:27.824Z,100878.47
2017-10-23T04:38:54.760Z,100873.64
2017-10-23T04:41:21.652Z,100876.39
2017-10-23T04:43:48.577Z,100880.22
2017-10-23T04:46:16.217Z,100878.52
2017-10-23T04:48:43.219Z,100874.03
2017-10-23T04:51:10.118Z,100878.19
2017-10-23T04:53:37.055Z,100878.95
2017-10-23T04:56:04.018Z,100880.27
2017-10-23T04:58:30.983Z,100885.18
2017-10-23T05:00:57.923Z,100891.16
2017-10-23T05:03:24.930Z,100891.84
2017-10-23T05:05:51.822Z,100888.79
2017-10-23T05:08:18.711Z,100892.32
2017-10-23T05:10:45.670Z,100896.61
2017-10-23T05:13:12.559Z,100900.30
2017-10-23T05:15:39.539Z,100903.30
2017-10-23T05:18:06.472Z,100897.61
2017-10-23T05:20:34.101Z,100899.28
2017-10-23T05:23:01.017Z,100901.92
2017-10-23T05:25:27.917Z,100907.29
2017-10-23T05:27:54.815Z,100899.98
2017-10-23T05:30:21.744Z,100904.30
2017-10-23T05:32:49.810Z,100904.83
2017-10-23T05:35:17.521Z,100898.74
2017-10-23T05:37:44.527Z,100892.38
2017-10-23T05:40:12.941Z,100892.54
2017-10-23T05:42:40.575Z,100893.73
2017-10-23T05:45:07.479Z,100894.30
2017-10-23T05:47:35.099Z,100900.63
2017-10-23T05:50:02.019Z,100894.88
2017-10-23T05:52:29.681Z,100903.38
2017-10-23T05:54:56.587Z,100905.45
2017-10-23T05:57:23.495Z,100900.77
2017-10-23T05:59:50.400Z,100910.88
2017-10-23T06:02:17.977Z,100903.81
2017-10-23T06:04:44.926Z,100912.58
2017-10-23T06:07:12.572Z,100917.30
2017-10-23T06:09:39.499Z,100913.36
2017-10-23T06:12:06.427Z,100917.97
2017-10-23T06:14:33.339Z,100921.37
2017-10-23T06:17:00.220Z,100918.05
2017-10-23T06:19:27.162Z,100923.60
2017-10-23T06:21:54.065Z,100922.50
2017-10-23T06:24:21.007Z,100921.83
2017-10-23T06:26:47.937Z,100926.84
2017-10-23T06:29:14.853Z,100931.05
2017-10-23T06:31:41.755Z,100933.23
2017-10-23T06:34:08.693Z,100936.34
2017-10-23T06:36:36.419Z,100937.49
2017-10-23T06:39:03.565Z,100938.33
2017-10-23T06:41:30.447Z,100937.45
2017-10-23T06:43:57.401Z,100934.58
2017-10-23T06:46:24.335Z,100937.12
2017-10-23T06:48:52.014Z,100938.11
2017-10-23T06:51:19.666Z,100942.42
2017-10-23T06:53:46.549Z,100943.75
2017-10-23T06:56:13.452Z,100954.97
2017-10-23T06:58:40.424Z,100951.68
2017-10-23T07:01:07.291Z,100952.63
2017-10-23T07:03:34.247Z,100949.28
2017-10-23T07:06:01.228Z,100954.92
2017-10-23T07:08:28.102Z,100960.05
2017-10-23T07:10:55.039Z,100962.69
2017-10-23T07:13:21.989Z,100959.23
2017-10-23T07:15:48.891Z,100947.05
2017-10-23T07:18:15.763Z,100954.73
2017-10-23T07:20:42.659Z,100960.42
2017-10-23T07:23:09.550Z,100954.73
2017-10-23T07:25:36.574Z,100954.27
2017-10-23T07:28:04.223Z,100961.17
2017-10-23T07:30:31.136Z,100957.61
2017-10-23T07:32:57.958Z,100959.72
2017-10-23T07:35:24.876Z,100958.86
2017-10-23T07:37:51.756Z,100954.68
2017-10-23T07:40:18.650Z,100959.72
2017-10-23T07:42:45.552Z,100964.30
2017-10-23T07:45:12.498Z,100961.88
2017-10-23T07:47:40.092Z,100963.04
2017-10-23T07:50:07.022Z,100960.50
2017-10-23T07:52:33.871Z,100959.05
2017-10-23T07:55:00.749Z,100958.23
2017-10-23T07:57:27.654Z,100971.75
2017-10-23T07:59:54.517Z,100973.91
2017-10-23T08:02:21.377Z,100978.42
2017-10-23T08:04:48.254Z,100978.23
2017-10-23T08:07:15.114Z,100980.11
2017-10-23T08:09:41.986Z,100976.73
2017-10-23T08:12:08.830Z,100977.36
2017-10-23T08:14:35.646Z,100980.44
2017-10-23T08:17:03.223Z,100983.78
2017-10-23T08:19:30.761Z,100985.02
2017-10-23T08:21:57.735Z,100988.77
2017-10-23T08:24:24.617Z,100994.44
2017-10-23T08:26:51.463Z,100997.27
2017-10-23T08:29:18.295Z,100991.22
2017-10-23T08:31:45.136Z,100993.27
2017-10-23T08:34:12.032Z,101001.98
2017-10-23T08:36:38.849Z,100999.17
2017-10-23T08:39:05.695Z,101006.47
2017-10-23T08:41:33.286Z,101003.98
2017-10-23T08:44:00.191Z,101006.83
2017-10-23T08:46:27.017Z,101006.84
2017-10-23T08:48:53.858Z,101004.51
2017-10-23T08:51:21.522Z,101004.59
2017-10-23T08:53:48.476Z,100999.82
2017-10-23T08:56:15.358Z,100996.92
2017-10-23T08:58:43.022Z,100996.41
2017-10-23T09:01:10.041Z,100994.08
2017-10-23T09:03:37.652Z,100993.27
2017-10-23T09:06:04.494Z,100998.02
2017-10-23T09:08:31.328Z,100999.14
2017-10-23T09:10:58.245Z,101002.91
2017-10-23T09:13:25.163Z,101006.85
2017-10-23T09:15:51.996Z,101009.04
2017-10-23T09:18:19.614Z,100998.94
2017-10-23T09:20:46.488Z,101005.50
2017-10-23T09:23:13.391Z,100995.00
2017-10-23T09:25:40.947Z,100999.63
2017-10-23T09:28:07.920Z,100994.08
2017-10-23T09:30:34.737Z,101010.68
2017-10-23T09:33:21.970Z,101012.38
2017-10-23T09:35:48.816Z,101009.77
2017-10-23T09:38:15.691Z,101010.42
2017-10-23T09:40:42.483Z,101007.69
2017-10-23T09:43:09.293Z,101009.30
2017-10-23T09:45:36.151Z,101022.98
2017-10-23T09:48:03.008Z,101016.52
2017-10-23T09:50:29.868Z,101023.17
2017-10-23T09:52:56.692Z,101016.36
2017-10-23T09:55:23.520Z,101019.70
2017-10-23T09:57:50.401Z,101021.62
2017-10-23T10:00:17.323Z,101028.76
2017-10-23T10:02:44.175Z,101026.11
2017-10-23T10:05:11.045Z,101028.17
2017-10-23T10:07:37.919Z,101029.72
2017-10-23T10:10:04.767Z,101038.62
2017-10-23T10:12:31.584Z,101037.41
2017-10-23T10:14:58.389Z,101043.47
2017-10-23T10:17:25.212Z,101041.87
2017-10-23T10:19:52.775Z,101051.55
2017-10-23T10:22:19.616Z,101056.20
2017-10-23T10:24:46.464Z,101054.49
2017-10-23T10:27:13.364Z,101057.84
2017-10-23T10:29:40.167Z,101054.88
2017-10-23T10:32:06.999Z,101057.46
2017-10-23T10:34:33.834Z,101058.66
2017-10-23T10:37:00.716Z,101053.02
2017-10-23T10:39:27.673Z,101049.02
2017-10-23T10:41:54.494Z,101054.78
2017-10-23T10:44:21.409Z,101060.67
2017-10-23T10:46:48.304Z,101060.80
2017-10-23T10:49:15.905Z,101047.80
2017-10-23T10:51:42.791Z,101051.09
2017-10-23T10:54:09.753Z,101051.25
2017-10-23T10:56:36.643Z,101058.91
2017-10-23T10:59:03.524Z,101056.69
2017-10-23T11:01:30.383Z,101053.28
2017-10-23T11:03:57.302Z,101054.20
2017-10-23T11:06:24.222Z,101059.20
2017-10-23T11:08:51.127Z,101056.80
2017-10-23T11:11:18.977Z,101050.35
2017-10-23T11:13:45.896Z,101046.59
2017-10-23T11:16:12.849Z,101047.92
2017-10-23T11:18:40.073Z,101052.13
2017-10-23T11:21:07.380Z,101052.13
2017-10-23T11:23:34.241Z,101057.80
2017-10-23T11:26:01.259Z,101055.90
2017-10-23T11:28:28.252Z,101050.32
2017-10-23T11:30:55.299Z,101044.06
2017-10-23T11:33:22.620Z,101042.30
2017-10-23T11:35:49.450Z,101040.08
2017-10-23T11:38:17.914Z,101033.69
2017-10-23T11:40:44.958Z,101039.34
2017-10-23T11:43:12.542Z,101042.17
2017-10-23T11:45:40.105Z,101042.20
2017-10-23T11:48:07.387Z,101038.64
2017-10-23T11:50:34.976Z,101037.89
2017-10-23T11:53:02.556Z,101055.78
2017-10-23T11:55:29.390Z,101040.19
2017-10-23T11:57:56.208Z,101033.45
2017-10-23T12:00:23.788Z,101033.95
2017-10-23T12:02:50.985Z,101028.41
2017-10-23T12:05:19.179Z,101036.29
2017-10-23T12:07:46.757Z,101029.84
2017-10-23T12:10:14.799Z,101035.66
2017-10-23T12:12:41.668Z,101031.54
2017-10-23T12:15:08.577Z,101031.84
2017-10-23T12:17:35.477Z,101035.78
2017-10-23T12:20:02.369Z,101036.13
2017-10-23T12:22:29.291Z,101030.14
2017-10-23T12:24:56.966Z,101034.06
2017-10-23T12:27:24.592Z,101035.52
2017-10-23T12:29:51.424Z,101034.79
2017-10-23T12:32:18.356Z,101034.39
2017-10-23T12:34:45.191Z,101032.27
2017-10-23T12:37:12.091Z,101028.12
2017-10-23T12:39:39.704Z,101035.45
2017-10-23T12:42:06.596Z,101035.16
2017-10-23T12:44:33.419Z,101041.04
2017-10-23T12:47:00.280Z,101038.48
2017-10-23T12:49:28.128Z,101039.97
2017-10-23T12:51:54.986Z,101047.42
2017-10-23T12:54:21.831Z,101040.54
2017-10-23T12:56:48.691Z,101044.59
2017-10-23T12:59:15.521Z,101044.83
2017-10-23T13:01:42.368Z,101056.31
2017-10-23T13:04:10.390Z,101054.78
2017-10-23T13:06:38.017Z,101060.19
2017-10-23T13:09:05.592Z,101055.58
2017-10-23T13:11:33.197Z,101053.55
2017-10-23T13:14:00.275Z,101055.65
2017-10-23T13:16:27.827Z,101052.72
2017-10-23T13:18:54.671Z,101057.13
2017-10-23T13:21:21.869Z,101059.76
2017-10-23T13:23:49.071Z,101077.30
2017-10-23T13:26:16.798Z,101069.77
2017-10-23T13:28:45.033Z,101074.26
2017-10-23T13:31:12.691Z,101070.98
2017-10-23T13:33:39.523Z,101074.02
2017-10-23T13:36:07.109Z,101077.81
2017-10-23T13:38:34.732Z,101068.95
2017-10-23T13:41:01.705Z,101082.78
2017-10-23T13:43:28.560Z,101081.59
2017-10-23T13:45:55.495Z,101084.03
2017-10-23T13:48:22.315Z,101080.55
2017-10-23T13:50:49.159Z,101089.48
2017-10-23T13:53:16.993Z,101089.91
2017-10-23T13:55:46.056Z,101093.09
2017-10-23T13:58:12.932Z,101090.45
2017-10-23T14:00:39.782Z,101091.22
2017-10-23T14:03:06.636Z,101092.79
2017-10-23T14:05:33.511Z,101089.14
2017-10-23T14:08:00.373Z,101093.94
2017-10-23T14:10:27.235Z,101090.30
2017-10-23T14:12:54.108Z,101099.69
2017-10-23T14:15:20.953Z,101103.30
2017-10-23T14:17:47.839Z,101100.37
2017-10-23T14:20:14.748Z,101104.72
2017-10-23T14:22:41.649Z,101112.88
2017-10-23T14:25:08.526Z,101114.11
2017-10-23T14:27:35.457Z,101112.63
2017-10-23T14:30:02.406Z,101113.34
2017-10-23T14:32:30.414Z,101121.83
2017-10-23T14:37:24.287Z,101120.28
2017-10-23T14:39:52.028Z,101124.85
2017-10-23T14:42:18.943Z,101125.19
2017-10-23T14:44:45.936Z,101130.10
2017-10-23T14:47:12.840Z,101136.80
2017-10-23T14:49:40.555Z,101134.23
2017-10-23T14:52:07.481Z,101138.31
2017-10-23T14:54:34.385Z,101138.99
2017-10-23T14:57:01.371Z,101145.50
2017-10-23T14:59:28.385Z,101137.20
2017-10-23T15:01:56.048Z,101141.22
2017-10-23T15:04:23.807Z,101140.32
2017-10-23T15:06:50.688Z,101147.73
2017-10-23T15:09:17.659Z,101143.75
2017-10-23T15:11:44.560Z,101150.59
2017-10-23T15:14:11.603Z,101149.67
2017-10-23T15:16:39.175Z,101147.82
2017-10-23T15:19:06.827Z,101150.84
2017-10-23T15:21:33.755Z,101159.02
2017-10-23T15:24:00.620Z,101157.91
2017-10-23T15:26:27.529Z,101153.59
2017-10-23T15:28:54.371Z,101163.31
2017-10-23T15:31:21.252Z,101158.25
2017-10-23T15:33:48.126Z,101167.30
2017-10-23T15:36:15.663Z,101160.11
2017-10-23T15:38:42.485Z,101162.08
2017-10-23T15:41:09.385Z,101161.22
2017-10-23T15:43:36.252Z,101164.95
2017-10-23T15:46:03.149Z,101165.30
2017-10-23T15:48:30.710Z,101167.17
2017-10-23T15:50:57.553Z,101165.63
2017-10-23T15:53:24.394Z,101164.55
2017-10-23T15:55:51.208Z,101170.14
2017-10-23T15:58:18.812Z,101167.52
2017-10-23T16:00:45.679Z,101178.25
2017-10-23T16:03:12.520Z,101170.84
2017-10-23T16:05:39.333Z,101176.09
2017-10-23T16:08:06.224Z,101179.21
2017-10-23T16:10:33.820Z,101175.69
2017-10-23T16:13:01.398Z,101183.13
2017-10-23T16:15:28.986Z,101180.30
2017-10-23T16:17:55.813Z,101182.85
2017-10-23T16:20:22.695Z,101189.86
2017-10-23T16:22:50.301Z,101185.38
2017-10-23T16:25:17.159Z,101195.84
2017-10-23T16:27:44.038Z,101191.46
2017-10-23T16:30:11.692Z,101197.55
2017-10-23T16:32:38.606Z,101200.75
2017-10-23T16:35:05.495Z,101199.88
2017-10-23T16:37:33.060Z,101208.38
2017-10-23T16:39:59.943Z,101209.55
2017-10-23T16:42:27.556Z,101214.52
2017-10-23T16:44:54.478Z,101215.41
2017-10-23T16:47:22.315Z,101219.02
2017-10-23T16:49:49.179Z,101220.46
2017-10-23T16:52:16.181Z,101229.73
2017-10-23T16:54:42.999Z,101235.54
2017-10-23T16:57:09.869Z,101237.78
2017-10-23T16:59:36.699Z,101240.06
2017-10-23T17:02:03.636Z,101243.28
2017-10-23T17:04:31.220Z,101243.91
2017-10-23T17:06:58.813Z,101245.70
2017-10-23T17:09:25.681Z,101248.38
2017-10-23T17:11:52.508Z,101247.00
2017-10-23T17:14:19.309Z,101251.90
2017-10-23T17:16:46.220Z,101248.59
2017-10-23T17:19:13.114Z,101255.10
2017-10-23T17:21:39.984Z,101259.69
2017-10-23T17:24:06.841Z,101261.36
2017-10-23T17:26:33.815Z,101268.48
2017-10-23T17:29:00.635Z,101259.52
2017-10-23T17:31:27.501Z,101270.42
2017-10-23T17:33:55.086Z,101274.95
2017-10-23T17:36:22.657Z,101278.41
2017-10-23T17:38:49.518Z,101283.77
2017-10-23T17:41:17.133Z,101280.30
2017-10-23T17:43:43.989Z,101286.08
2017-10-23T17:46:10.809Z,101291.13
2017-10-23T17:48:37.721Z,101294.93
2017-10-23T17:51:04.618Z,101298.22
2017-10-23T17:53:31.494Z,101302.05
2017-10-23T17:55:58.414Z,101300.89
2017-10-23T17:58:25.239Z,101296.82
2017-10-23T18:00:52.179Z,101305.41
2017-10-23T18:03:19.465Z,101302.77
2017-10-23T18:05:47.100Z,101309.33
2017-10-23T18:08:13.943Z,101308.70
2017-10-23T18:10:40.804Z,101311.34
2017-10-23T18:13:07.977Z,101308.16
2017-10-23T18:15:35.131Z,101311.31
2017-10-23T18:18:01.967Z,101310.08
2017-10-23T18:20:30.535Z,101305.83
2017-10-23T18:22:59.197Z,101316.64
2017-10-23T18:25:26.199Z,101317.41
2017-10-23T18:27:54.504Z,101316.88
2017-10-23T18:30:21.800Z,101319.09
2017-10-23T18:32:49.348Z,101321.22
2017-10-23T18:35:16.429Z,101323.56
2017-10-23T18:37:43.858Z,101324.44
2017-10-23T18:40:12.080Z,101323.77
2017-10-23T18:42:39.924Z,101327.21
2017-10-23T18:45:08.981Z,101324.07
2017-10-23T18:47:37.408Z,101328.59
2017-10-23T18:50:06.133Z,101327.80
2017-10-23T18:52:34.750Z,101326.98
2017-10-23T18:55:02.535Z,101331.00
2017-10-23T18:57:30.734Z,101334.16
2017-10-23T18:59:57.723Z,101332.05
2017-10-23T19:02:25.432Z,101337.02
2017-10-23T19:04:52.414Z,101341.88
2017-10-23T19:07:20.991Z,101343.66
2017-10-23T19:09:49.424Z,101342.64
2017-10-23T19:12:18.883Z,101345.75
2017-10-23T19:14:47.514Z,101346.84
2017-10-23T19:17:15.928Z,101343.67
2017-10-23T19:19:43.633Z,101341.20
2017-10-23T19:22:10.555Z,101347.41
2017-10-23T19:24:38.497Z,101337.77
2017-10-23T19:27:07.373Z,101338.28
2017-10-23T19:29:35.991Z,101344.13
2017-10-23T19:32:04.341Z,101340.77
2017-10-23T19:34:32.662Z,101342.75
2017-10-23T19:37:00.424Z,101343.05
2017-10-23T19:39:27.905Z,101345.98
2017-10-23T19:41:56.762Z,101344.47
2017-10-23T19:44:25.139Z,101354.83
2017-10-23T19:46:53.603Z,101352.18
2017-10-23T19:49:22.092Z,101359.52
2017-10-23T19:51:50.642Z,101361.06
2017-10-23T19:54:18.605Z,101360.58
2017-10-23T19:56:45.514Z,101356.13
2017-10-23T19:59:12.341Z,101358.41
2017-10-23T20:01:39.247Z,101350.46
2017-10-23T20:04:06.111Z,101351.27
2017-10-23T20:06:32.984Z,101352.05
2017-10-23T20:09:00.131Z,101359.23
2017-10-23T20:11:27.238Z,101363.91
2017-10-23T20:13:55.137Z,101360.62
2017-10-23T20:16:22.029Z,101367.41
2017-10-23T20:18:48.880Z,101372.61
2017-10-23T20:21:15.846Z,101367.05
2017-10-23T20:23:42.719Z,101371.19
2017-10-23T20:26:09.605Z,101373.06
2017-10-23T20:28:36.507Z,101378.05
2017-10-23T20:31:04.121Z,101379.22
2017-10-23T20:33:30.995Z,101376.39
2017-10-23T20:35:57.913Z,101382.75
2017-10-23T20:38:24.764Z,101378.51
2017-10-23T20:40:53.389Z,101383.40
2017-10-23T20:43:20.283Z,101380.81
2017-10-23T20:45:47.122Z,101380.73
2017-10-23T20:48:13.961Z,101388.39
2017-10-23T20:50:40.853Z,101381.63
2017-10-23T20:53:07.714Z,101384.16
2017-10-23T20:55:34.552Z,101391.82
2017-10-23T20:58:01.427Z,101389.67
2017-10-23T21:00:28.332Z,101392.90
2017-10-23T21:02:55.185Z,101389.41
2017-10-23T21:05:22.057Z,101391.49
2017-10-23T21:07:48.908Z,101391.45
2017-10-23T21:10:15.845Z,101391.31
2017-10-23T21:12:42.706Z,101390.36
2017-10-23T21:15:09.564Z,101381.92
2017-10-23T21:17:36.404Z,101378.73
2017-10-23T21:20:03.328Z,101379.22
2017-10-23T21:22:30.191Z,101384.77
2017-10-23T21:24:57.040Z,101391.28
2017-10-23T21:27:23.889Z,101390.50
2017-10-23T21:29:50.779Z,101382.05
2017-10-23T21:32:17.632Z,101390.69
2017-10-23T21:34:44.521Z,101383.09
2017-10-23T21:37:12.088Z,101388.66
2017-10-23T21:39:38.924Z,101393.78
2017-10-23T21:42:05.807Z,101388.97
2017-10-23T21:44:32.751Z,101388.09
2017-10-23T21:47:08.675Z,101388.99
2017-10-23T21:49:36.278Z,101387.91
2017-10-23T21:52:03.182Z,101385.61
2017-10-23T21:54:30.006Z,101391.34
2017-10-23T21:56:56.877Z,101390.91
2017-10-23T21:59:23.734Z,101388.56
2017-10-23T22:01:50.588Z,101390.00
2017-10-23T22:04:17.452Z,101389.89
2017-10-23T22:06:44.312Z,101392.16
2017-10-23T22:09:11.140Z,101392.73
2017-10-23T22:11:38.080Z,101392.23
2017-10-23T22:14:05.681Z,101398.59
2017-10-23T22:16:32.536Z,101401.03
2017-10-23T22:19:00.125Z,101395.03
2017-10-23T22:21:27.026Z,101396.62
2017-10-23T22:23:53.962Z,101399.44
2017-10-23T22:26:20.822Z,101399.78
2017-10-23T22:28:47.671Z,101408.53
2017-10-23T22:31:14.498Z,101412.07
2017-10-23T22:33:41.413Z,101413.72
2017-10-23T22:36:08.266Z,101413.86
2017-10-23T22:38:35.100Z,101414.89
2017-10-23T22:41:02.698Z,101411.28
2017-10-23T22:43:29.523Z,101405.38
2017-10-23T22:45:56.401Z,101403.41
2017-10-23T22:48:24.060Z,101402.63
2017-10-23T22:50:50.963Z,101396.52
2017-10-23T22:53:17.817Z,101395.02
2017-10-23T22:55:44.661Z,101397.38
2017-10-23T22:58:12.296Z,101403.87
2017-10-23T23:00:39.293Z,101407.80
2017-10-23T23:03:06.149Z,101408.63
2017-10-23T23:05:33.044Z,101405.88
2017-10-23T23:07:59.955Z,101407.63
2017-10-23T23:10:26.836Z,101395.70
2017-10-23T23:12:53.756Z,101401.08
2017-10-23T23:15:20.651Z,101393.50
2017-10-23T23:17:47.528Z,101402.51
2017-10-23T23:20:14.409Z,101401.33
2017-10-23T23:22:42.060Z,101408.93
2017-10-23T23:25:08.970Z,101401.19
2017-10-23T23:27:35.883Z,101399.70
2017-10-23T23:30:02.805Z,101403.35
2017-10-23T23:32:30.395Z,101399.05
2017-10-23T23:34:57.288Z,101395.31
2017-10-23T23:37:24.151Z,101392.31
2017-10-23T23:39:50.977Z,101394.50
2017-10-23T23:42:17.811Z,101395.59
2017-10-23T23:44:44.630Z,101396.72
2017-10-23T23:47:11.495Z,101391.01
2017-10-23T23:49:38.312Z,101394.39
2017-10-23T23:52:05.142Z,101393.56
2017-10-23T23:54:32.756Z,101390.77
2017-10-23T23:56:59.619Z,101389.44
2017-10-23T23:59:26.468Z,101392.04
